Time;durP1;ratioP1;P1;durP2;ratioP2;P2;SDS_P1;SDS_P2;PMS_P1;PMS_P2;Temp;Humidity;BMP_temperature;BMP_pressure;BME280_temperature;BME280_humidity;BME280_pressure;Samples;Min_cycle;Max_cycle;Signal;HPM_P1;HPM_P2
2022/07/01 00:01:41;;;;;;;0.00;0.00;;;15.30;99.90;;;;;;4987170;28;20135;-71
2022/07/01 00:04:07;;;;;;;0.00;0.00;;;15.30;99.90;;;;;;4986837;28;20143;-71
2022/07/01 00:06:33;;;;;;;0.00;0.00;;;15.30;99.90;;;;;;4987192;28;20042;-71
2022/07/01 00:08:59;;;;;;;0.00;0.00;;;15.40;99.90;;;;;;4986989;28;20063;-69
2022/07/01 00:11:25;;;;;;;0.00;0.00;;;15.30;99.90;;;;;;4986339;28;20105;-70
2022/07/01 00:13:51;;;;;;;0.00;0.00;;;15.40;99.90;;;;;;4986798;28;20512;-71
2022/07/01 00:16:17;;;;;;;0.00;0.00;;;15.40;99.90;;;;;;4986799;28;20054;-64
2022/07/01 00:18:43;;;;;;;0.10;0.10;;;15.40;99.90;;;;;;5002428;28;20043;-70
2022/07/01 00:21:09;;;;;;;0.00;0.00;;;15.40;99.90;;;;;;4986647;28;20046;-71
2022/07/01 00:23:35;;;;;;;0.00;0.00;;;15.40;99.90;;;;;;4987016;28;20068;-70
2022/07/01 00:26:00;;;;;;;0.00;0.00;;;15.40;99.90;;;;;;4986353;28;20045;-70
2022/07/01 00:28:26;;;;;;;0.00;0.00;;;15.30;99.90;;;;;;4986557;28;20042;-70
2022/07/01 00:30:52;;;;;;;0.00;0.00;;;15.40;99.90;;;;;;4985016;28;20054;-70
2022/07/01 00:33:18;;;;;;;0.00;0.00;;;15.40;99.90;;;;;;4985700;28;20485;-70
2022/07/01 00:35:44;;;;;;;0.00;0.00;;;15.40;99.90;;;;;;4986996;28;20046;-69
2022/07/01 00:38:10;;;;;;;0.00;0.00;;;15.40;99.90;;;;;;4986974;28;20539;-70
2022/07/01 00:40:35;;;;;;;0.00;0.00;;;15.40;99.90;;;;;;4985384;28;20050;-69
2022/07/01 00:43:02;;;;;;;0.00;0.00;;;15.40;99.90;;;;;;4986409;28;20054;-70
2022/07/01 00:45:27;;;;;;;0.05;0.05;;;15.30;99.90;;;;;;4995358;28;20057;-70
2022/07/01 00:47:53;;;;;;;0.00;0.00;;;15.50;99.90;;;;;;4988077;28;20047;-70
2022/07/01 00:50:19;;;;;;;0.00;0.00;;;15.40;99.90;;;;;;4986279;28;20207;-71
2022/07/01 00:52:47;;;;;;;0.00;0.00;;;15.30;99.90;;;;;;4985444;28;20073;-70
2022/07/01 00:55:13;;;;;;;0.00;0.00;;;15.40;99.90;;;;;;4985957;28;20100;-71
2022/07/01 00:57:42;;;;;;;0.00;0.00;;;15.40;99.90;;;;;;4985812;28;20042;-69
2022/07/01 01:00:13;;;;;;;0.00;0.00;;;15.30;99.90;;;;;;4986153;28;20076;-70
2022/07/01 01:02:39;;;;;;;0.00;0.00;;;15.40;99.90;;;;;;4985916;28;20556;-70
2022/07/01 01:05:09;;;;;;;0.00;0.00;;;15.40;99.90;;;;;;4985977;28;20092;-70
2022/07/01 01:07:36;;;;;;;0.00;0.00;;;15.40;99.90;;;;;;4984624;28;20457;-70
2022/07/01 01:10:03;;;;;;;0.00;0.00;;;15.30;99.90;;;;;;4985231;28;20066;-70
2022/07/01 01:12:29;;;;;;;0.00;0.00;;;15.30;99.90;;;;;;4985416;28;20046;-71
2022/07/01 01:14:57;;;;;;;0.00;0.00;;;15.20;99.90;;;;;;4984542;28;20046;-70
2022/07/01 01:17:23;;;;;;;0.70;0.10;;;15.20;99.90;;;;;;4985542;28;20046;-69
2022/07/01 01:19:50;;;;;;;0.00;0.00;;;15.20;99.90;;;;;;4986085;28;20121;-70
2022/07/01 01:22:18;;;;;;;0.05;0.00;;;15.20;99.90;;;;;;4984128;28;20082;-63
2022/07/01 01:24:45;;;;;;;0.00;0.00;;;15.20;99.90;;;;;;4985534;28;20133;-70
2022/07/01 01:27:12;;;;;;;0.00;0.00;;;15.20;99.90;;;;;;4986164;28;20433;-70
2022/07/01 01:29:38;;;;;;;0.10;0.00;;;15.20;99.90;;;;;;4984150;28;20849;-70
2022/07/01 01:32:05;;;;;;;0.00;0.00;;;15.20;99.90;;;;;;4985720;28;20046;-69
2022/07/01 01:34:32;;;;;;;0.00;0.00;;;15.20;99.90;;;;;;4985780;28;20402;-70
2022/07/01 01:36:58;;;;;;;0.00;0.00;;;15.30;99.90;;;;;;4985509;28;20489;-70
2022/07/01 01:39:24;;;;;;;0.00;0.00;;;15.30;99.90;;;;;;4984428;28;20093;-71
2022/07/01 01:41:49;;;;;;;0.00;0.00;;;15.20;99.90;;;;;;4985432;28;20039;-70
2022/07/01 01:44:15;;;;;;;0.00;0.00;;;15.30;99.90;;;;;;4988256;28;20073;-70
2022/07/01 01:46:41;;;;;;;0.00;0.00;;;15.30;99.90;;;;;;4992429;28;20156;-70
2022/07/01 01:49:07;;;;;;;0.00;0.00;;;15.30;99.90;;;;;;4985526;28;20042;-70
2022/07/01 01:51:33;;;;;;;0.00;0.00;;;15.20;99.90;;;;;;4983773;28;20058;-70
2022/07/01 01:53:59;;;;;;;0.00;0.00;;;15.20;99.90;;;;;;4984688;28;20100;-70
2022/07/01 01:56:26;;;;;;;0.00;0.00;;;15.20;99.90;;;;;;4984625;28;20497;-70
2022/07/01 01:58:52;;;;;;;0.00;0.00;;;15.30;99.90;;;;;;4983793;28;20172;-70
2022/07/01 02:01:19;;;;;;;0.00;0.00;;;15.30;99.90;;;;;;4985084;28;20184;-69
2022/07/01 02:03:46;;;;;;;0.00;0.00;;;15.30;99.90;;;;;;4985136;28;20054;-70
2022/07/01 02:06:13;;;;;;;0.00;0.00;;;15.20;99.90;;;;;;4985446;28;20050;-70
2022/07/01 02:08:39;;;;;;;0.00;0.00;;;15.30;99.90;;;;;;4984774;28;20062;-70
2022/07/01 02:11:06;;;;;;;0.00;0.00;;;15.30;99.90;;;;;;4983892;28;20054;-70
2022/07/01 02:13:32;;;;;;;0.08;0.00;;;15.20;99.90;;;;;;4984215;28;20038;-70
2022/07/01 02:15:57;;;;;;;0.00;0.00;;;15.20;99.90;;;;;;4984918;28;20050;-69
2022/07/01 02:18:24;;;;;;;0.00;0.00;;;15.20;99.90;;;;;;4984811;28;20148;-70
2022/07/01 02:20:50;;;;;;;0.10;0.10;;;15.20;99.90;;;;;;4984908;28;20053;-70
2022/07/01 02:23:15;;;;;;;0.00;0.00;;;15.10;99.90;;;;;;4984506;28;20133;-62
2022/07/01 02:25:41;;;;;;;0.00;0.00;;;15.10;99.90;;;;;;4984511;28;20706;-63
2022/07/01 02:28:08;;;;;;;0.10;0.00;;;15.20;99.90;;;;;;4983334;28;20049;-70
2022/07/01 02:30:36;;;;;;;0.00;0.00;;;15.10;99.90;;;;;;4984032;28;20043;-70
2022/07/01 02:33:03;;;;;;;0.00;0.00;;;15.10;99.90;;;;;;4984851;28;20065;-70
2022/07/01 02:35:29;;;;;;;0.00;0.00;;;15.10;99.90;;;;;;4984481;28;20112;-69
2022/07/01 02:37:55;;;;;;;0.00;0.00;;;15.00;99.90;;;;;;4983375;28;20054;-69
2022/07/01 02:40:21;;;;;;;0.00;0.00;;;15.00;99.90;;;;;;4983446;28;20464;-69
2022/07/01 02:42:47;;;;;;;0.00;0.00;;;15.00;99.90;;;;;;4984436;28;20038;-70
2022/07/01 02:45:13;;;;;;;0.10;0.10;;;15.10;99.90;;;;;;4991668;28;20054;-70
2022/07/01 02:47:40;;;;;;;0.00;0.00;;;15.00;99.90;;;;;;4988033;28;20545;-69
2022/07/01 02:50:11;;;;;;;0.00;0.00;;;15.00;99.90;;;;;;4984322;28;20058;-70
2022/07/01 02:52:38;;;;;;;0.05;0.05;;;15.00;99.90;;;;;;4984117;28;20046;-69
2022/07/01 02:55:06;;;;;;;0.10;0.00;;;15.00;99.90;;;;;;4982890;28;20735;-70
2022/07/01 02:57:32;;;;;;;0.00;0.00;;;14.90;99.90;;;;;;4983804;28;20065;-68
2022/07/01 02:59:58;;;;;;;0.00;0.00;;;14.90;99.90;;;;;;4984064;28;20042;-69
2022/07/01 03:02:24;;;;;;;0.75;0.20;;;14.90;99.90;;;;;;4984199;28;20038;-70
2022/07/01 03:04:51;;;;;;;0.00;0.00;;;14.90;99.90;;;;;;4983686;28;20039;-70
2022/07/01 03:07:17;;;;;;;0.00;0.00;;;14.90;99.90;;;;;;4983824;28;20054;-63
2022/07/01 03:09:43;;;;;;;0.00;0.00;;;14.90;99.90;;;;;;4983444;28;20526;-69
2022/07/01 03:12:25;;;;;;;0.00;0.00;;;14.90;99.90;;;;;;4984304;28;20050;-69
2022/07/01 03:14:56;;;;;;;0.00;0.00;;;14.90;99.90;;;;;;4984322;28;20047;-70
2022/07/01 03:17:22;;;;;;;0.00;0.00;;;14.90;99.90;;;;;;4983808;28;20133;-70
2022/07/01 03:19:48;;;;;;;0.00;0.00;;;14.90;99.90;;;;;;4982469;28;20677;-69
2022/07/01 03:22:14;;;;;;;0.00;0.00;;;14.90;99.90;;;;;;4984293;28;20078;-69
2022/07/01 03:24:40;;;;;;;0.00;0.00;;;14.90;99.90;;;;;;4983410;28;20096;-70
2022/07/01 03:27:06;;;;;;;0.00;0.00;;;14.80;99.90;;;;;;4983861;28;20136;-69
2022/07/01 03:29:32;;;;;;;0.00;0.00;;;14.80;99.90;;;;;;4983369;28;20130;-70
2022/07/01 03:31:57;;;;;;;0.00;0.00;;;14.80;99.90;;;;;;4983994;28;20113;-69
2022/07/01 03:34:23;;;;;;;0.00;0.00;;;14.70;99.90;;;;;;4983695;28;20054;-69
2022/07/01 03:36:49;;;;;;;0.00;0.00;;;14.70;99.90;;;;;;4983531;28;20042;-69
2022/07/01 03:39:14;;;;;;;0.00;0.00;;;14.70;99.90;;;;;;4983533;28;20054;-70
2022/07/01 03:41:40;;;;;;;0.00;0.00;;;14.70;99.90;;;;;;4983767;28;20046;-70
2022/07/01 03:44:05;;;;;;;0.08;0.00;;;14.70;99.90;;;;;;4986141;28;20038;-69
2022/07/01 03:46:32;;;;;;;0.00;0.00;;;14.70;99.90;;;;;;4991734;28;20035;-69
2022/07/01 03:49:00;;;;;;;0.00;0.00;;;14.70;99.90;;;;;;4983709;28;20052;-69
2022/07/01 03:51:26;;;;;;;0.32;0.28;;;14.70;99.90;;;;;;4983538;28;20532;-69
2022/07/01 03:56:36;;;;;;;0.10;0.10;;;14.70;99.90;;;;;;4983702;28;20062;-69
2022/07/01 03:59:01;;;;;;;0.00;0.00;;;14.70;99.90;;;;;;4983717;28;20047;-69
2022/07/01 04:01:27;;;;;;;0.22;0.22;;;14.70;99.90;;;;;;4981642;28;20050;-69
2022/07/01 04:03:53;;;;;;;0.20;0.20;;;14.70;99.90;;;;;;4983440;28;20042;-69
2022/07/01 04:06:19;;;;;;;0.00;0.00;;;14.60;99.90;;;;;;4981911;28;20489;-69
2022/07/01 04:08:47;;;;;;;0.00;0.00;;;14.60;99.90;;;;;;4985492;28;20640;-69
2022/07/01 04:11:13;;;;;;;0.03;0.03;;;14.70;99.90;;;;;;4987379;28;20440;-69
2022/07/01 04:13:39;;;;;;;0.68;0.45;;;14.70;99.90;;;;;;4987043;28;20050;-69
2022/07/01 04:16:05;;;;;;;0.00;0.00;;;14.70;99.90;;;;;;4987118;28;20118;-70
2022/07/01 04:18:32;;;;;;;0.00;0.00;;;14.70;99.90;;;;;;4986315;28;20505;-69
2022/07/01 04:23:43;;;;;;;0.00;0.00;;;14.70;99.90;;;;;;4986585;28;20085;-69
2022/07/01 04:26:09;;;;;;;0.00;0.00;;;14.70;99.90;;;;;;4986765;28;20125;-70
2022/07/01 04:28:35;;;;;;;0.00;0.00;;;14.70;99.90;;;;;;4986866;28;20126;-70
2022/07/01 04:31:00;;;;;;;0.00;0.00;;;14.70;99.90;;;;;;4986661;28;20049;-70
2022/07/01 04:33:26;;;;;;;0.00;0.00;;;14.70;99.90;;;;;;4986710;28;20054;-70
2022/07/01 04:35:52;;;;;;;0.47;0.43;;;14.70;99.90;;;;;;4985263;28;20477;-69
2022/07/01 04:38:17;;;;;;;0.00;0.00;;;14.70;99.90;;;;;;4986380;28;20089;-69
2022/07/01 04:41:58;;;;;;;0.00;0.00;;;14.60;99.90;;;;;;4986626;28;20093;-69
2022/07/01 04:43:29;;;;;;;0.00;0.00;;;14.70;99.90;;;;;;4986150;28;20062;-69
2022/07/01 04:45:55;;;;;;;0.08;0.08;;;14.70;99.90;;;;;;4997659;28;20042;-69
2022/07/01 04:48:21;;;;;;;0.00;0.00;;;14.70;99.90;;;;;;4986580;28;20489;-69
2022/07/01 04:50:47;;;;;;;0.10;0.05;;;14.70;99.90;;;;;;4986264;28;20467;-69
2022/07/01 04:53:15;;;;;;;0.08;0.08;;;14.60;99.90;;;;;;4986712;28;20265;-70
2022/07/01 04:55:41;;;;;;;0.00;0.00;;;14.70;99.90;;;;;;4986136;28;20046;-69
2022/07/01 04:58:07;;;;;;;0.00;0.00;;;14.70;99.90;;;;;;4985778;28;20046;-70
2022/07/01 05:00:33;;;;;;;0.10;0.10;;;14.70;99.90;;;;;;4986364;28;20046;-69
2022/07/01 05:02:58;;;;;;;0.10;0.10;;;14.80;99.90;;;;;;4986134;28;20046;-69
2022/07/01 05:05:24;;;;;;;0.00;0.00;;;14.70;99.90;;;;;;4986020;28;20047;-69
2022/07/01 05:07:49;;;;;;;0.03;0.00;;;14.70;99.90;;;;;;4985680;28;20053;-69
2022/07/01 05:10:15;;;;;;;0.00;0.00;;;14.80;99.90;;;;;;4985948;28;20058;-62
2022/07/01 05:12:41;;;;;;;0.00;0.00;;;14.70;99.90;;;;;;4986609;28;20039;-70
2022/07/01 05:15:08;;;;;;;0.00;0.00;;;14.70;99.90;;;;;;4985848;28;20066;-69
2022/07/01 05:23:02;;;;;;;0.17;0.17;;;14.80;99.90;;;;;;4985977;28;20101;-69
2022/07/01 05:25:28;;;;;;;0.20;0.20;;;14.80;99.90;;;;;;4985374;28;20486;-70
2022/07/01 05:27:54;;;;;;;0.25;0.20;;;14.70;99.90;;;;;;4985097;28;20505;-70
2022/07/01 05:30:21;;;;;;;0.32;0.30;;;14.70;99.90;;;;;;4985182;28;20048;-71
2022/07/01 05:32:46;;;;;;;0.32;0.15;;;14.80;99.90;;;;;;4985914;28;20057;-69
2022/07/01 05:35:13;;;;;;;0.10;0.10;;;14.80;99.90;;;;;;4986166;28;20038;-69
2022/07/01 05:37:39;;;;;;;0.10;0.10;;;14.80;99.90;;;;;;4985439;28;20732;-70
2022/07/01 05:40:05;;;;;;;0.10;0.10;;;14.80;99.90;;;;;;4984821;28;20122;-70
2022/07/01 05:42:31;;;;;;;0.00;0.00;;;14.80;99.90;;;;;;4985668;28;20462;-70
2022/07/01 05:44:57;;;;;;;0.15;0.13;;;14.90;99.90;;;;;;4990325;28;20132;-70
2022/07/01 05:47:23;;;;;;;0.00;0.00;;;14.80;99.90;;;;;;4991147;28;20509;-69
2022/07/01 05:49:48;;;;;;;0.63;0.22;;;14.90;99.90;;;;;;4985302;28;20050;-70
2022/07/01 05:52:14;;;;;;;0.13;0.13;;;14.80;99.90;;;;;;4985479;28;20042;-69
2022/07/01 05:54:39;;;;;;;0.00;0.00;;;14.90;99.90;;;;;;4984500;28;20501;-69
2022/07/01 05:57:05;;;;;;;0.10;0.10;;;14.90;99.90;;;;;;4984991;28;20050;-69
2022/07/01 05:59:31;;;;;;;0.20;0.00;;;14.90;99.90;;;;;;5000122;28;20050;-69
2022/07/01 06:01:56;;;;;;;0.00;0.00;;;15.00;99.90;;;;;;4985083;28;20078;-69
2022/07/01 06:04:22;;;;;;;0.00;0.00;;;15.00;99.90;;;;;;4983180;28;20050;-69
2022/07/01 06:06:48;;;;;;;0.43;0.30;;;15.00;99.90;;;;;;4984881;28;20562;-70
2022/07/01 06:09:13;;;;;;;0.20;0.20;;;15.00;99.90;;;;;;4984271;28;20555;-69
2022/07/01 06:11:39;;;;;;;0.08;0.03;;;15.00;99.90;;;;;;4984939;28;20457;-62
2022/07/01 06:14:05;;;;;;;0.32;0.30;;;15.00;99.90;;;;;;4984719;28;20054;-62
2022/07/01 06:16:30;;;;;;;0.05;0.05;;;15.00;99.90;;;;;;4984685;28;20076;-67
2022/07/01 06:18:56;;;;;;;0.30;0.20;;;15.00;99.90;;;;;;4984640;28;20049;-68
2022/07/01 06:21:22;;;;;;;0.55;0.40;;;15.10;99.90;;;;;;4985078;28;20104;-68
2022/07/01 06:23:47;;;;;;;0.28;0.22;;;15.40;99.90;;;;;;4983687;28;20046;-67
2022/07/01 06:26:13;;;;;;;0.98;0.43;;;15.20;99.90;;;;;;4985091;28;20090;-68
2022/07/01 06:28:39;;;;;;;0.65;0.22;;;15.20;99.90;;;;;;4984606;28;20178;-68
2022/07/01 06:31:04;;;;;;;0.50;0.30;;;15.10;99.90;;;;;;4983155;28;20043;-68
2022/07/01 06:33:30;;;;;;;0.17;0.10;;;15.10;99.90;;;;;;4984456;28;20046;-68
2022/07/01 06:35:57;;;;;;;0.15;0.15;;;15.10;99.90;;;;;;4984310;28;20046;-65
2022/07/01 06:38:23;;;;;;;0.20;0.20;;;15.10;99.90;;;;;;4983880;28;20052;-67
2022/07/01 06:41:26;;;;;;;0.20;0.20;;;15.20;99.90;;;;;;4983973;28;20042;-67
2022/07/01 06:43:35;;;;;;;0.50;0.30;;;15.10;99.90;;;;;;4983893;28;20523;-67
2022/07/01 06:46:01;;;;;;;1.00;0.32;;;15.10;99.90;;;;;;4995049;28;20046;-68
2022/07/01 06:48:27;;;;;;;0.10;0.08;;;15.10;99.90;;;;;;4983767;28;20049;-69
2022/07/01 06:50:53;;;;;;;0.52;0.30;;;15.10;99.90;;;;;;4984630;28;20042;-68
2022/07/01 06:53:19;;;;;;;0.98;0.55;;;15.20;99.90;;;;;;4982324;28;20064;-68
2022/07/01 06:55:45;;;;;;;0.43;0.30;;;15.10;99.90;;;;;;4984005;28;20050;-68
2022/07/01 06:58:11;;;;;;;0.43;0.35;;;15.30;99.90;;;;;;4984545;28;20109;-68
2022/07/01 07:00:37;;;;;;;0.20;0.20;;;15.50;99.90;;;;;;4984115;28;20050;-67
2022/07/01 07:03:03;;;;;;;0.00;0.00;;;15.50;99.90;;;;;;4983993;28;20046;-68
2022/07/01 07:05:30;;;;;;;0.38;0.30;;;15.60;99.90;;;;;;4983390;28;20105;-68
2022/07/01 07:07:57;;;;;;;0.08;0.08;;;15.60;99.90;;;;;;4982218;28;20050;-67
2022/07/01 07:10:22;;;;;;;0.38;0.32;;;15.60;99.90;;;;;;4983591;28;20146;-67
2022/07/01 07:12:48;;;;;;;1.25;0.70;;;15.70;99.90;;;;;;4982232;28;20506;-68
2022/07/01 07:15:15;;;;;;;1.00;0.57;;;15.80;99.90;;;;;;4984513;28;21180;-68
2022/07/01 07:17:41;;;;;;;2.40;1.25;;;16.00;99.90;;;;;;4984079;28;20081;-68
2022/07/01 07:20:08;;;;;;;0.40;0.30;;;16.10;99.90;;;;;;4983827;28;20493;-68
2022/07/01 07:22:34;;;;;;;0.65;0.50;;;16.30;99.90;;;;;;4981986;28;20061;-67
2022/07/01 07:25:00;;;;;;;0.45;0.20;;;16.40;99.90;;;;;;4983191;28;20061;-68
2022/07/01 07:27:25;;;;;;;0.52;0.40;;;16.40;99.90;;;;;;4982387;28;20584;-68
2022/07/01 07:29:51;;;;;;;0.38;0.22;;;16.50;99.90;;;;;;4982737;28;20573;-69
2022/07/01 07:32:17;;;;;;;0.55;0.40;;;16.60;99.90;;;;;;4982848;28;20053;-62
2022/07/01 07:34:42;;;;;;;0.20;0.20;;;16.60;99.90;;;;;;4983872;28;20121;-66
2022/07/01 07:37:08;;;;;;;0.25;0.25;;;16.50;99.90;;;;;;4983738;28;20043;-66
2022/07/01 07:39:34;;;;;;;0.03;0.03;;;16.40;99.90;;;;;;4982471;28;20049;-67
2022/07/01 07:41:59;;;;;;;0.50;0.50;;;16.30;99.90;;;;;;4999414;28;20070;-67
2022/07/01 07:44:25;;;;;;;0.10;0.10;;;16.30;99.90;;;;;;4989684;28;20492;-68
2022/07/01 07:46:51;;;;;;;0.20;0.20;;;16.30;99.90;;;;;;4994628;28;20053;-67
2022/07/01 07:49:16;;;;;;;0.20;0.20;;;16.30;99.90;;;;;;4986842;28;20185;-62
2022/07/01 07:51:42;;;;;;;0.17;0.10;;;16.30;99.90;;;;;;4986426;28;20046;-62
2022/07/01 07:54:08;;;;;;;0.20;0.20;;;16.50;99.90;;;;;;4986680;28;20116;-62
2022/07/01 07:56:34;;;;;;;2.00;1.27;;;16.80;99.90;;;;;;4987065;28;20504;-62
2022/07/01 07:58:59;;;;;;;0.55;0.40;;;16.70;99.90;;;;;;4986704;28;20046;-61
2022/07/01 08:01:25;;;;;;;0.20;0.20;;;16.60;99.90;;;;;;4987088;28;20583;-66
2022/07/01 08:03:51;;;;;;;0.45;0.40;;;16.50;99.90;;;;;;4987104;28;20046;-66
2022/07/01 08:06:17;;;;;;;0.73;0.30;;;16.30;99.90;;;;;;4986724;28;20034;-64
2022/07/01 08:08:43;;;;;;;0.20;0.10;;;16.30;99.90;;;;;;4986410;28;20585;-66
2022/07/01 08:11:09;;;;;;;0.22;0.10;;;16.40;99.90;;;;;;4987122;28;20164;-66
2022/07/01 08:13:34;;;;;;;1.48;1.35;;;16.50;99.90;;;;;;4986935;28;20042;-67
2022/07/01 08:16:00;;;;;;;0.22;0.22;;;16.50;99.90;;;;;;4986273;28;20070;-67
2022/07/01 08:18:26;;;;;;;0.10;0.10;;;16.50;99.90;;;;;;4986992;28;20050;-67
2022/07/01 08:20:54;;;;;;;2.22;0.20;;;16.30;99.90;;;;;;4987187;28;20401;-66
2022/07/01 08:23:21;;;;;;;0.10;0.10;;;16.30;99.90;;;;;;4985571;28;20050;-66
2022/07/01 08:25:50;;;;;;;0.00;0.00;;;16.30;99.90;;;;;;4986862;28;20425;-65
2022/07/01 08:28:17;;;;;;;0.32;0.15;;;16.30;99.90;;;;;;4986590;28;20492;-62
2022/07/01 08:30:43;;;;;;;0.10;0.00;;;16.50;99.90;;;;;;4986945;28;20066;-66
2022/07/01 08:33:10;;;;;;;0.00;0.00;;;16.60;99.90;;;;;;4986481;28;20080;-60
2022/07/01 08:35:36;;;;;;;0.80;0.55;;;16.60;99.90;;;;;;4986256;28;20157;-60
2022/07/01 08:38:02;;;;;;;0.13;0.10;;;16.60;99.90;;;;;;4986020;28;20042;-60
2022/07/01 08:40:29;;;;;;;0.57;0.35;;;16.60;99.90;;;;;;4985879;28;20520;-67
2022/07/01 08:43:00;;;;;;;0.10;0.10;;;17.00;99.90;;;;;;4985413;28;20051;-68
2022/07/01 08:45:28;;;;;;;0.00;0.00;;;17.30;99.90;;;;;;4995233;28;20053;-63
2022/07/01 08:47:57;;;;;;;0.25;0.10;;;17.60;99.90;;;;;;4986792;28;20401;-66
2022/07/01 08:50:25;;;;;;;0.10;0.10;;;18.00;99.90;;;;;;4985961;28;20102;-60
2022/07/01 08:52:52;;;;;;;0.13;0.10;;;18.00;99.90;;;;;;4985579;28;20045;-48
2022/07/01 08:55:21;;;;;;;0.15;0.08;;;17.90;99.90;;;;;;4985224;28;20049;-53
2022/07/01 08:57:48;;;;;;;0.00;0.00;;;17.90;99.90;;;;;;4985749;28;20050;-69
2022/07/01 09:00:14;;;;;;;1.17;0.88;;;17.50;99.90;;;;;;4986543;28;20424;-64
2022/07/01 09:02:49;;;;;;;0.38;0.30;;;17.30;99.90;;;;;;4985812;28;20050;-65
2022/07/01 09:05:15;;;;;;;1.25;0.43;;;17.30;99.90;;;;;;5001063;28;20056;-64
2022/07/01 09:07:41;;;;;;;0.10;0.10;;;17.70;99.90;;;;;;4985624;28;20740;-65
2022/07/01 09:10:19;;;;;;;0.00;0.00;;;17.90;99.90;;;;;;4985790;28;20639;-65
2022/07/01 09:12:46;;;;;;;0.00;0.00;;;18.00;99.90;;;;;;4985700;28;20046;-65
2022/07/01 09:15:29;;;;;;;0.35;0.10;;;18.10;99.90;;;;;;4985719;28;20038;-66
2022/07/01 09:18:03;;;;;;;0.30;0.20;;;18.40;99.90;;;;;;4985410;28;20050;-62
2022/07/01 09:20:34;;;;;;;0.20;0.10;;;18.30;99.90;;;;;;4985785;28;20057;-67
2022/07/01 09:23:12;;;;;;;0.20;0.20;;;18.00;99.90;;;;;;4984710;28;20058;-67
2022/07/01 09:25:43;;;;;;;0.00;0.00;;;18.00;99.90;;;;;;4984267;28;20073;-69
2022/07/01 09:28:14;;;;;;;0.00;0.00;;;18.20;99.90;;;;;;4984479;28;20057;-69
2022/07/01 09:30:46;;;;;;;0.10;0.10;;;18.50;99.90;;;;;;4985008;28;20054;-66
2022/07/01 09:33:17;;;;;;;0.00;0.00;;;18.20;99.90;;;;;;4986256;28;20042;-68
2022/07/01 09:35:44;;;;;;;0.08;0.08;;;18.30;99.90;;;;;;4985679;28;20050;-68
2022/07/01 09:38:15;;;;;;;0.00;0.00;;;18.20;99.90;;;;;;4984601;28;20134;-67
2022/07/01 09:40:54;;;;;;;0.25;0.15;;;18.30;99.90;;;;;;4985539;28;20054;-67
2022/07/01 09:43:24;;;;;;;0.25;0.20;;;18.60;99.90;;;;;;4985563;28;20136;-66
2022/07/01 09:45:56;;;;;;;0.30;0.22;;;18.80;99.90;;;;;;4994461;28;20081;-67
2022/07/01 09:48:47;;;;;;;0.15;0.10;;;19.10;99.90;;;;;;4985147;28;20038;-67
2022/07/01 09:51:13;;;;;;;0.00;0.00;;;19.60;99.90;;;;;;4982038;28;20054;-67
2022/07/01 09:53:39;;;;;;;0.00;0.00;;;18.80;99.90;;;;;;4984344;28;20038;-67
2022/07/01 09:56:05;;;;;;;0.50;0.50;;;18.70;99.90;;;;;;4983590;28;20873;-67
2022/07/01 09:58:32;;;;;;;0.22;0.22;;;18.70;99.90;;;;;;4984103;28;20044;-67
2022/07/01 10:00:58;;;;;;;0.00;0.00;;;18.60;99.90;;;;;;4985147;28;20089;-67
2022/07/01 10:03:26;;;;;;;0.00;0.00;;;18.30;99.90;;;;;;4984857;28;20468;-67
2022/07/01 10:06:03;;;;;;;0.00;0.00;;;18.40;99.90;;;;;;4984725;28;20050;-67
2022/07/01 10:08:44;;;;;;;0.38;0.10;;;18.60;99.90;;;;;;4983645;28;20433;-67
2022/07/01 10:11:36;;;;;;;0.15;0.13;;;18.70;99.90;;;;;;4984876;28;20050;-67
2022/07/01 10:14:04;;;;;;;0.10;0.10;;;18.70;99.90;;;;;;4984519;28;20468;-68
2022/07/01 10:16:31;;;;;;;1.45;0.10;;;18.60;99.90;;;;;;4984534;28;20053;-68
2022/07/01 10:18:57;;;;;;;0.10;0.10;;;18.70;99.90;;;;;;4984004;28;20057;-67
2022/07/01 10:21:30;;;;;;;0.00;0.00;;;18.60;99.90;;;;;;4984525;28;20046;-67
2022/07/01 10:24:17;;;;;;;0.40;0.22;;;18.50;99.90;;;;;;4983934;28;20042;-65
2022/07/01 10:26:44;;;;;;;0.15;0.05;;;18.40;99.90;;;;;;4983307;28;20054;-67
2022/07/01 10:29:32;;;;;;;0.65;0.63;;;18.40;99.90;;;;;;4984333;28;20096;-68
2022/07/01 10:32:29;;;;;;;0.00;0.00;;;18.50;99.90;;;;;;4984453;28;20050;-68
2022/07/01 10:35:06;;;;;;;0.10;0.10;;;18.40;99.90;;;;;;4983867;28;20069;-68
2022/07/01 10:37:32;;;;;;;0.95;0.10;;;18.60;99.90;;;;;;4983538;28;20071;-68
2022/07/01 10:40:02;;;;;;;0.20;0.20;;;18.70;99.90;;;;;;4984133;28;20042;-67
2022/07/01 10:42:54;;;;;;;0.28;0.20;;;18.80;99.90;;;;;;4984041;28;20053;-68
2022/07/01 10:45:20;;;;;;;0.10;0.10;;;18.90;99.90;;;;;;4991729;28;20041;-68
2022/07/01 10:47:46;;;;;;;0.20;0.20;;;19.00;99.90;;;;;;4986831;28;20049;-66
2022/07/01 10:50:18;;;;;;;2.17;1.35;;;19.00;99.90;;;;;;4984320;28;20093;-67
2022/07/01 10:53:04;;;;;;;0.13;0.10;;;18.90;99.90;;;;;;4983616;28;20046;-66
2022/07/01 10:55:44;;;;;;;0.00;0.00;;;19.50;99.90;;;;;;4982761;28;20332;-67
2022/07/01 10:58:10;;;;;;;0.00;0.00;;;19.90;99.90;;;;;;4983942;28;20053;-66
2022/07/01 11:00:40;;;;;;;0.00;0.00;;;20.40;99.90;;;;;;4983118;28;20054;-67
2022/07/01 11:03:15;;;;;;;0.20;0.20;;;20.40;99.90;;;;;;4984038;28;20050;-67
2022/07/01 11:05:42;;;;;;;0.15;0.13;;;20.10;99.90;;;;;;4984042;28;20054;-67
2022/07/01 11:08:08;;;;;;;0.00;0.00;;;19.80;99.90;;;;;;4982878;28;20046;-67
2022/07/01 11:10:34;;;;;;;0.22;0.20;;;19.70;99.90;;;;;;4983515;28;20133;-67
2022/07/01 11:13:01;;;;;;;0.20;0.10;;;19.30;99.90;;;;;;4983671;28;20125;-69
2022/07/01 11:15:29;;;;;;;0.10;0.05;;;19.30;99.90;;;;;;4983167;28;20058;-69
2022/07/01 11:17:57;;;;;;;0.00;0.00;;;19.20;99.90;;;;;;4983443;28;20054;-67
2022/07/01 11:20:24;;;;;;;0.00;0.00;;;19.30;99.90;;;;;;4983787;28;20444;-69
2022/07/01 11:22:50;;;;;;;0.17;0.10;;;19.30;99.90;;;;;;4982852;28;20046;-68
2022/07/01 11:25:18;;;;;;;0.00;0.00;;;19.40;99.90;;;;;;4983478;28;20050;-63
2022/07/01 11:27:49;;;;;;;0.10;0.08;;;19.30;99.90;;;;;;4982926;28;20459;-67
2022/07/01 11:30:16;;;;;;;0.05;0.05;;;19.30;99.90;;;;;;4983774;28;20136;-68
2022/07/01 11:32:48;;;;;;;0.00;0.00;;;19.50;99.90;;;;;;4984222;28;20043;-66
2022/07/01 11:41:04;;;;;;;0.52;0.28;;;20.30;99.90;;;;;;4982989;28;20051;-68
2022/07/01 11:43:36;;;;;;;0.17;0.10;;;20.30;99.90;;;;;;4983349;28;20054;-68
2022/07/01 11:46:04;;;;;;;0.00;0.00;;;20.20;99.90;;;;;;4994550;28;20045;-67
2022/07/01 11:48:38;;;;;;;0.00;0.00;;;20.10;99.90;;;;;;4982988;28;20403;-68
2022/07/01 11:51:10;;;;;;;0.15;0.05;;;20.50;99.90;;;;;;4983639;28;20054;-68
2022/07/01 11:53:36;;;;;;;0.20;0.20;;;20.50;99.90;;;;;;4982603;28;20561;-68
2022/07/01 11:56:02;;;;;;;0.03;0.03;;;20.50;99.90;;;;;;4982995;28;20434;-69
2022/07/01 11:59:03;;;;;;;0.65;0.22;;;20.50;99.90;;;;;;4983157;28;20074;-68
2022/07/01 12:01:32;;;;;;;0.03;0.03;;;20.50;99.90;;;;;;4970965;28;20058;-69
2022/07/01 12:04:00;;;;;;;0.20;0.20;;;20.30;99.90;;;;;;4983405;28;20158;-67
2022/07/01 12:06:26;;;;;;;0.10;0.10;;;20.80;99.90;;;;;;4983017;28;20042;-68
2022/07/01 12:08:53;;;;;;;1.00;0.63;;;20.60;99.90;;;;;;4981915;28;20436;-70
2022/07/01 12:11:21;;;;;;;0.30;0.30;;;20.60;99.90;;;;;;4981842;28;20074;-70
2022/07/01 12:13:47;;;;;;;0.17;0.15;;;20.40;99.90;;;;;;4983557;28;20069;-70
2022/07/01 12:16:14;;;;;;;0.20;0.20;;;20.60;99.90;;;;;;4982989;28;20061;-69
2022/07/01 12:18:50;;;;;;;0.30;0.20;;;20.60;99.90;;;;;;4983223;28;20122;-68
2022/07/01 12:21:15;;;;;;;0.10;0.10;;;20.40;99.90;;;;;;4983376;28;20049;-68
2022/07/01 12:23:41;;;;;;;0.08;0.08;;;20.40;99.90;;;;;;4982504;28;20464;-62
2022/07/01 12:26:07;;;;;;;0.03;0.03;;;20.40;99.90;;;;;;4983253;28;20045;-69
2022/07/01 12:28:38;;;;;;;0.00;0.00;;;20.20;99.90;;;;;;4983570;28;20054;-69
2022/07/01 12:31:08;;;;;;;0.00;0.00;;;20.20;99.90;;;;;;4986607;28;20042;-69
2022/07/01 12:33:39;;;;;;;0.00;0.00;;;20.10;99.90;;;;;;4986479;28;20460;-69
2022/07/01 12:36:06;;;;;;;0.00;0.00;;;19.90;99.90;;;;;;4986330;28;20411;-69
2022/07/01 12:38:32;;;;;;;0.17;0.10;;;19.90;99.90;;;;;;4985234;28;20104;-69
2022/07/01 12:40:59;;;;;;;0.00;0.00;;;19.80;99.90;;;;;;4985080;28;20034;-70
2022/07/01 12:43:31;;;;;;;0.20;0.10;;;19.90;99.90;;;;;;4986401;28;20069;-69
2022/07/01 12:46:00;;;;;;;0.00;0.00;;;19.90;99.90;;;;;;4997072;28;20053;-68
2022/07/01 12:48:27;;;;;;;0.00;0.00;;;20.20;99.90;;;;;;4985762;28;20054;-69
2022/07/01 12:50:54;;;;;;;0.00;0.00;;;19.90;99.90;;;;;;4986313;28;20472;-69
2022/07/01 12:53:21;;;;;;;0.00;0.00;;;19.80;99.90;;;;;;4985241;28;20046;-68
2022/07/01 12:55:57;;;;;;;0.00;0.00;;;19.60;99.90;;;;;;4985850;28;20086;-69
2022/07/01 12:58:25;;;;;;;0.00;0.00;;;19.60;99.90;;;;;;4986188;28;20050;-68
2022/07/01 13:00:58;;;;;;;0.00;0.00;;;19.80;99.90;;;;;;4986441;28;20045;-71
2022/07/01 13:03:25;;;;;;;0.00;0.00;;;19.80;99.90;;;;;;4985531;28;20039;-67
2022/07/01 13:05:53;;;;;;;0.00;0.00;;;20.00;99.90;;;;;;4986012;28;20552;-69
2022/07/01 13:08:19;;;;;;;0.00;0.00;;;20.30;99.90;;;;;;4983655;28;20038;-68